sensor_id;sensor_type;location;lat;lon;timestamp;pressure;altitude;pressure_sealevel;temperature;humidity
59190;BME280;50749;51.636;4.948;2024-03-08T16:47:25;100647.91;;;18.90;43.67
59190;BME280;50749;51.636;4.948;2024-03-08T16:51:59;100667.50;;;18.59;42.06
59190;BME280;50749;51.636;4.948;2024-03-08T16:54:27;100669.34;;;18.51;42.24
59190;BME280;50749;51.636;4.948;2024-03-08T16:56:56;100679.84;;;18.42;42.95
59190;BME280;50749;51.636;4.948;2024-03-08T16:59:25;100681.63;;;18.31;42.70
59190;BME280;50749;51.636;4.948;2024-03-08T17:01:54;100678.66;;;18.20;42.59
59190;BME280;50749;51.636;4.948;2024-03-08T17:04:28;100673.72;;;18.13;42.37
59190;BME280;50749;51.636;4.948;2024-03-08T17:07:00;100673.94;;;18.05;42.39
59190;BME280;50749;51.636;4.948;2024-03-08T17:09:28;100678.22;;;-99.71;42.81
59190;BME280;50749;51.636;4.948;2024-03-08T17:11:59;100669.06;;;17.98;42.68
59190;BME280;50749;51.636;4.948;2024-03-08T17:14:30;100672.91;;;17.93;42.87
59190;BME280;50749;51.636;4.948;2024-03-08T17:17:03;100669.72;;;17.91;42.90
59190;BME280;50749;51.636;4.948;2024-03-08T17:19:33;78161.31;;;17.91;42.33
59190;BME280;50749;51.636;4.948;2024-03-08T17:22:05;100668.84;;;17.87;42.56
59190;BME280;50749;51.636;4.948;2024-03-08T17:24:35;100674.25;;;-99.71;42.51
59190;BME280;50749;51.636;4.948;2024-03-08T17:27:04;100674.25;;;17.83;42.51
59190;BME280;50749;51.636;4.948;2024-03-08T17:29:36;100677.41;;;17.82;42.94
59190;BME280;50749;51.636;4.948;2024-03-08T17:32:05;100674.16;;;17.80;42.65
59190;BME280;50749;51.636;4.948;2024-03-08T17:34:34;100675.00;;;17.80;43.05
59190;BME280;50749;51.636;4.948;2024-03-08T17:37:05;100675.00;;;17.80;43.05
59190;BME280;50749;51.636;4.948;2024-03-08T17:39:37;100677.94;;;17.88;42.75
59190;BME280;50749;51.636;4.948;2024-03-08T17:42:05;100678.00;;;17.91;42.50
59190;BME280;50749;51.636;4.948;2024-03-08T17:44:34;100676.78;;;17.89;42.87
59190;BME280;50749;51.636;4.948;2024-03-08T17:47:04;100680.69;;;17.88;43.27
59190;BME280;50749;51.636;4.948;2024-03-08T17:49:33;100679.09;;;17.87;43.22
59190;BME280;50749;51.636;4.948;2024-03-08T17:52:13;100685.75;;;17.86;42.86
59190;BME280;50749;51.636;4.948;2024-03-08T17:54:41;100682.53;;;17.83;43.29
59190;BME280;50749;51.636;4.948;2024-03-08T17:57:10;100684.50;;;17.83;43.42
59190;BME280;50749;51.636;4.948;2024-03-08T17:59:40;100682.91;;;17.82;43.73
59190;BME280;50749;51.636;4.948;2024-03-08T18:02:10;100679.34;;;17.81;43.87
59190;BME280;50749;51.636;4.948;2024-03-08T18:04:39;100676.13;;;17.79;44.38
59190;BME280;50749;51.636;4.948;2024-03-08T18:07:10;100675.84;;;17.85;44.42
59190;BME280;50749;51.636;4.948;2024-03-08T18:09:39;100682.91;;;17.82;43.97
59190;BME280;50749;51.636;4.948;2024-03-08T18:12:07;100681.38;;;17.85;44.14
59190;BME280;50749;51.636;4.948;2024-03-08T18:14:36;100671.75;;;17.78;42.67
59190;BME280;50749;51.636;4.948;2024-03-08T18:17:08;100678.03;;;17.75;42.25
59190;BME280;50749;51.636;4.948;2024-03-08T18:19:39;100675.97;;;17.72;41.00
59190;BME280;50749;51.636;4.948;2024-03-08T18:22:11;100670.03;;;17.70;42.20
59190;BME280;50749;51.636;4.948;2024-03-08T18:24:39;100667.63;;;17.69;41.85
59190;BME280;50749;51.636;4.948;2024-03-08T18:27:11;100661.25;;;17.68;42.99
59190;BME280;50749;51.636;4.948;2024-03-08T18:29:40;100667.25;;;17.70;42.63
59190;BME280;50749;51.636;4.948;2024-03-08T18:32:09;100667.25;;;17.70;42.59
59190;BME280;50749;51.636;4.948;2024-03-08T18:34:38;100665.66;;;17.69;42.03
59190;BME280;50749;51.636;4.948;2024-03-08T18:37:11;100659.69;;;17.67;40.68
59190;BME280;50749;51.636;4.948;2024-03-08T18:39:40;100658.41;;;17.64;41.04
59190;BME280;50749;51.636;4.948;2024-03-08T18:42:10;100659.97;;;17.62;40.96
59190;BME280;50749;51.636;4.948;2024-03-08T18:44:39;100653.25;;;17.63;42.17
59190;BME280;50749;51.636;4.948;2024-03-08T18:47:07;100655.66;;;17.64;43.16
59190;BME280;50749;51.636;4.948;2024-03-08T18:49:36;100658.34;;;17.61;43.01
59190;BME280;50749;51.636;4.948;2024-03-08T18:52:05;100659.13;;;17.61;42.56
59190;BME280;50749;51.636;4.948;2024-03-08T18:54:36;100649.25;;;17.60;42.64
59190;BME280;50749;51.636;4.948;2024-03-08T18:57:06;100653.97;;;17.60;41.85
59190;BME280;50749;51.636;4.948;2024-03-08T18:59:36;100656.28;;;17.58;41.79
59190;BME280;50749;51.636;4.948;2024-03-08T19:02:05;100659.06;;;17.58;41.83
59190;BME280;50749;51.636;4.948;2024-03-08T19:04:34;100657.91;;;17.59;42.53
59190;BME280;50749;51.636;4.948;2024-03-08T19:07:02;100653.19;;;17.59;41.91
59190;BME280;50749;51.636;4.948;2024-03-08T19:09:32;100659.50;;;17.60;42.48
59190;BME280;50749;51.636;4.948;2024-03-08T19:12:04;100652.38;;;17.59;43.13
59190;BME280;50749;51.636;4.948;2024-03-08T19:14:35;100656.28;;;17.58;43.03
59190;BME280;50749;51.636;4.948;2024-03-08T19:17:04;100641.69;;;17.57;43.21
59190;BME280;50749;51.636;4.948;2024-03-08T19:19:36;100643.66;;;17.57;42.11
59190;BME280;50749;51.636;4.948;2024-03-08T19:22:05;100653.88;;;17.56;41.49
59190;BME280;50749;51.636;4.948;2024-03-08T19:24:34;100640.91;;;17.57;42.76
59190;BME280;50749;51.636;4.948;2024-03-08T19:27:05;100640.50;;;17.58;43.16
59190;BME280;50749;51.636;4.948;2024-03-08T19:29:38;100631.41;;;17.58;42.73
59190;BME280;50749;51.636;4.948;2024-03-08T19:32:07;100648.00;;;17.58;43.16
59190;BME280;50749;51.636;4.948;2024-03-08T19:34:37;100645.25;;;17.58;43.60
59190;BME280;50749;51.636;4.948;2024-03-08T19:37:05;100644.44;;;17.57;43.68
59190;BME280;50749;51.636;4.948;2024-03-08T19:39:35;100646.84;;;17.59;43.53
59190;BME280;50749;51.636;4.948;2024-03-08T19:42:07;100641.69;;;17.57;43.58
59190;BME280;50749;51.636;4.948;2024-03-08T19:44:38;100638.13;;;17.57;44.04
59190;BME280;50749;51.636;4.948;2024-03-08T19:47:08;100638.13;;;17.57;44.05
59190;BME280;50749;51.636;4.948;2024-03-08T19:49:39;100632.13;;;17.55;44.06
59190;BME280;50749;51.636;4.948;2024-03-08T19:52:08;100644.00;;;17.55;44.13
59190;BME280;50749;51.636;4.948;2024-03-08T19:54:37;100636.50;;;17.56;44.33
59190;BME280;50749;51.636;4.948;2024-03-08T19:57:08;100634.09;;;17.54;44.24
59190;BME280;50749;51.636;4.948;2024-03-08T19:59:37;100632.13;;;17.55;44.35
59190;BME280;50749;51.636;4.948;2024-03-08T20:02:10;100626.97;;;17.53;44.38
59190;BME280;50749;51.636;4.948;2024-03-08T20:04:39;100620.66;;;17.53;44.42
59190;BME280;50749;51.636;4.948;2024-03-08T20:07:08;100620.66;;;17.53;44.34
59190;BME280;50749;51.636;4.948;2024-03-08T20:09:39;100628.16;;;17.52;44.33
59190;BME280;50749;51.636;4.948;2024-03-08T20:12:10;100624.59;;;17.52;44.36
59190;BME280;50749;51.636;4.948;2024-03-08T20:14:39;100625.38;;;17.52;44.18
59190;BME280;50749;51.636;4.948;2024-03-08T20:17:08;100628.16;;;17.52;44.69
59190;BME280;50749;51.636;4.948;2024-03-08T20:19:38;100616.66;;;17.50;44.57
59190;BME280;50749;51.636;4.948;2024-03-08T20:22:06;100617.44;;;17.51;44.40
59190;BME280;50749;51.636;4.948;2024-03-08T20:24:35;100619.06;;;17.52;44.61
59190;BME280;50749;51.636;4.948;2024-03-08T20:27:04;100612.00;;;17.54;45.15
59190;BME280;50749;51.636;4.948;2024-03-08T20:29:36;100612.44;;;17.56;45.56
59190;BME280;50749;51.636;4.948;2024-03-08T20:32:06;100616.38;;;17.55;45.26
59190;BME280;50749;51.636;4.948;2024-03-08T20:34:38;100616.72;;;17.54;45.28
59190;BME280;50749;51.636;4.948;2024-03-08T20:37:06;100615.91;;;17.53;45.41
59190;BME280;50749;51.636;4.948;2024-03-08T20:39:35;100619.06;;;17.52;44.64
59190;BME280;50749;51.636;4.948;2024-03-08T20:42:04;100614.69;;;17.51;45.39
59190;BME280;50749;51.636;4.948;2024-03-08T20:44:36;100616.66;;;17.50;45.21
59190;BME280;50749;51.636;4.948;2024-03-08T20:47:05;100608.72;;;17.49;45.46
59190;BME280;50749;51.636;4.948;2024-03-08T20:49:34;100606.31;;;17.47;44.25
59190;BME280;50749;51.636;4.948;2024-03-08T20:52:03;100606.69;;;17.45;42.53
59190;BME280;50749;51.636;4.948;2024-03-08T20:54:32;100611.75;;;17.43;41.87
59190;BME280;50749;51.636;4.948;2024-03-08T20:57:04;100609.00;;;17.43;42.13
59190;BME280;50749;51.636;4.948;2024-03-08T20:59:37;100610.16;;;17.42;42.07
59190;BME280;50749;51.636;4.948;2024-03-08T21:02:05;100609.38;;;17.42;41.66
59190;BME280;50749;51.636;4.948;2024-03-08T21:04:35;100604.19;;;17.40;42.03
59190;BME280;50749;51.636;4.948;2024-03-08T21:07:06;100605.34;;;17.39;42.06
59190;BME280;50749;51.636;4.948;2024-03-08T21:09:35;100599.38;;;17.37;41.77
59190;BME280;50749;51.636;4.948;2024-03-08T21:12:04;100610.72;;;17.32;41.56
59190;BME280;50749;51.636;4.948;2024-03-08T21:14:41;100596.81;;;17.29;41.98
59190;BME280;50749;51.636;4.948;2024-03-08T21:17:09;100595.56;;;17.26;42.19
59190;BME280;50749;51.636;4.948;2024-03-08T21:19:38;100597.09;;;17.23;42.27
59190;BME280;50749;51.636;4.948;2024-03-08T21:22:10;100588.72;;;17.20;42.49
59190;BME280;50749;51.636;4.948;2024-03-08T21:24:39;100591.38;;;17.16;42.41
59190;BME280;50749;51.636;4.948;2024-03-08T21:27:07;100593.63;;;17.11;42.89
59190;BME280;50749;51.636;4.948;2024-03-08T21:29:39;100589.16;;;17.06;42.55
59190;BME280;50749;51.636;4.948;2024-03-08T21:32:07;100585.19;;;17.03;42.88
59190;BME280;50749;51.636;4.948;2024-03-08T21:34:38;100582.34;;;17.00;42.43
59190;BME280;50749;51.636;4.948;2024-03-08T21:37:07;100572.00;;;16.97;41.81
59190;BME280;50749;51.636;4.948;2024-03-08T21:39:36;100580.34;;;16.84;41.37
59190;BME280;50749;51.636;4.948;2024-03-08T21:42:06;100579.28;;;16.73;41.43
59190;BME280;50749;51.636;4.948;2024-03-08T21:44:35;100572.78;;;16.65;41.81
59190;BME280;50749;51.636;4.948;2024-03-08T21:47:06;100573.03;;;16.60;41.34
59190;BME280;50749;51.636;4.948;2024-03-08T21:49:35;100578.56;;;16.60;42.47
59190;BME280;50749;51.636;4.948;2024-03-08T21:52:09;100572.59;;;16.58;42.33
59190;BME280;50749;51.636;4.948;2024-03-08T21:54:41;100570.91;;;16.53;42.35
59190;BME280;50749;51.636;4.948;2024-03-08T21:57:10;100570.44;;;16.51;42.62
59190;BME280;50749;51.636;4.948;2024-03-08T21:59:39;100571.59;;;16.50;42.94
59190;BME280;50749;51.636;4.948;2024-03-08T22:02:10;100570.38;;;16.48;43.00
59190;BME280;50749;51.636;4.948;2024-03-08T22:04:39;100576.16;;;16.43;42.74
59190;BME280;50749;51.636;4.948;2024-03-08T22:07:08;100562.25;;;16.39;43.02
59190;BME280;50749;51.636;4.948;2024-03-08T22:09:37;100572.81;;;16.37;43.10
59190;BME280;50749;51.636;4.948;2024-03-08T22:12:06;100571.59;;;16.34;43.12
59190;BME280;50749;51.636;4.948;2024-03-08T22:14:35;100569.53;;;16.31;43.30
59190;BME280;50749;51.636;4.948;2024-03-08T22:17:04;100562.31;;;16.27;43.07
59190;BME280;50749;51.636;4.948;2024-03-08T22:19:36;100564.63;;;16.25;43.17
59190;BME280;50749;51.636;4.948;2024-03-08T22:22:04;100557.41;;;16.20;43.21
59190;BME280;50749;51.636;4.948;2024-03-08T22:24:33;100565.59;;;16.16;43.13
59190;BME280;50749;51.636;4.948;2024-03-08T22:27:04;100563.53;;;16.13;43.16
59190;BME280;50749;51.636;4.948;2024-03-08T22:29:33;100561.47;;;16.10;42.82
59190;BME280;50749;51.636;4.948;2024-03-08T22:32:02;100553.09;;;16.07;43.35
59190;BME280;50749;51.636;4.948;2024-03-08T22:34:36;100552.22;;;16.03;43.55
59190;BME280;50749;51.636;4.948;2024-03-08T22:37:04;100551.78;;;16.01;42.86
59190;BME280;50749;51.636;4.948;2024-03-08T22:39:34;100552.03;;;15.95;43.27
59190;BME280;50749;51.636;4.948;2024-03-08T22:42:04;100548.44;;;15.95;43.76
59190;BME280;50749;51.636;4.948;2024-03-08T22:44:33;100543.63;;;15.92;43.37
59190;BME280;50749;51.636;4.948;2024-03-08T22:47:01;100547.91;;;15.89;43.28
59190;BME280;50749;51.636;4.948;2024-03-08T22:49:32;100542.66;;;15.84;43.12
59190;BME280;50749;51.636;4.948;2024-03-08T22:52:04;100544.47;;;15.80;43.39
59190;BME280;50749;51.636;4.948;2024-03-08T22:54:33;100532.56;;;15.76;43.49
59190;BME280;50749;51.636;4.948;2024-03-08T22:57:02;100545.03;;;15.73;43.49
59190;BME280;50749;51.636;4.948;2024-03-08T22:59:34;100539.44;;;15.70;43.58
59190;BME280;50749;51.636;4.948;2024-03-08T23:02:03;100528.75;;;15.68;43.65
59190;BME280;50749;51.636;4.948;2024-03-08T23:04:34;100529.13;;;15.67;43.70
59190;BME280;50749;51.636;4.948;2024-03-08T23:07:05;100529.84;;;15.64;43.83
59190;BME280;50749;51.636;4.948;2024-03-08T23:09:36;100524.66;;;15.62;43.89
59190;BME280;50749;51.636;4.948;2024-03-08T23:12:08;100528.13;;;15.59;43.84
59190;BME280;50749;51.636;4.948;2024-03-08T23:14:37;100516.19;;;15.55;43.71
59190;BME280;50749;51.636;4.948;2024-03-08T23:17:07;100516.91;;;15.52;43.35
59190;BME280;50749;51.636;4.948;2024-03-08T23:19:36;100514.00;;;15.48;43.70
59190;BME280;50749;51.636;4.948;2024-03-08T23:22:09;100501.56;;;15.38;43.49
59190;BME280;50749;51.636;4.948;2024-03-08T23:24:39;100516.13;;;15.39;44.15
59190;BME280;50749;51.636;4.948;2024-03-08T23:27:09;100507.84;;;15.39;44.28
59190;BME280;50749;51.636;4.948;2024-03-08T23:29:38;100514.84;;;15.36;43.94
59190;BME280;50749;51.636;4.948;2024-03-08T23:32:06;100501.31;;;15.31;44.22
59190;BME280;50749;51.636;4.948;2024-03-08T23:34:37;100501.66;;;15.30;44.28
59190;BME280;50749;51.636;4.948;2024-03-08T23:37:09;100500.44;;;15.27;44.09
59190;BME280;50749;51.636;4.948;2024-03-08T23:39:38;100498.03;;;15.26;44.42
59190;BME280;50749;51.636;4.948;2024-03-08T23:42:06;100494.72;;;15.20;44.19
59190;BME280;50749;51.636;4.948;2024-03-08T23:44:37;100490.78;;;15.21;44.63
59190;BME280;50749;51.636;4.948;2024-03-08T23:47:06;100498.50;;;15.15;44.23
59190;BME280;50749;51.636;4.948;2024-03-08T23:49:34;100482.31;;;15.14;44.26
59190;BME280;50749;51.636;4.948;2024-03-08T23:52:04;100483.38;;;15.09;44.15
59190;BME280;50749;51.636;4.948;2024-03-08T23:54:37;100478.53;;;15.06;44.33
59190;BME280;50749;51.636;4.948;2024-03-08T23:57:06;100487.88;;;15.01;44.47
59190;BME280;50749;51.636;4.948;2024-03-08T23:59:35;100487.97;;;15.05;44.89
